sensor_id;sensor_type;location;lat;lon;timestamp;P1;durP1;ratioP1;P2;durP2;ratioP2
75758;SDS011;64371;47.566;19.086;2023-05-02T00:02:45;7.22;;;2.90;;
75758;SDS011;64371;47.566;19.086;2023-05-02T00:05:48;6.63;;;3.33;;
75758;SDS011;64371;47.566;19.086;2023-05-02T00:08:50;5.85;;;2.63;;
75758;SDS011;64371;47.566;19.086;2023-05-02T00:11:52;6.50;;;3.07;;
75758;SDS011;64371;47.566;19.086;2023-05-02T00:14:55;4.53;;;2.53;;
75758;SDS011;64371;47.566;19.086;2023-05-02T00:17:57;4.80;;;2.83;;
75758;SDS011;64371;47.566;19.086;2023-05-02T00:20:59;5.90;;;2.70;;
75758;SDS011;64371;47.566;19.086;2023-05-02T00:24:02;5.07;;;2.50;;
75758;SDS011;64371;47.566;19.086;2023-05-02T00:27:04;7.73;;;2.60;;
75758;SDS011;64371;47.566;19.086;2023-05-02T00:30:08;6.57;;;2.58;;
75758;SDS011;64371;47.566;19.086;2023-05-02T00:33:11;5.55;;;2.55;;
75758;SDS011;64371;47.566;19.086;2023-05-02T00:36:17;3.83;;;2.28;;
75758;SDS011;64371;47.566;19.086;2023-05-02T00:39:20;4.10;;;2.47;;
75758;SDS011;64371;47.566;19.086;2023-05-02T00:42:23;4.13;;;2.20;;
75758;SDS011;64371;47.566;19.086;2023-05-02T00:45:25;5.32;;;2.30;;
75758;SDS011;64371;47.566;19.086;2023-05-02T00:48:28;3.80;;;2.58;;
75758;SDS011;64371;47.566;19.086;2023-05-02T00:51:32;6.38;;;2.20;;
75758;SDS011;64371;47.566;19.086;2023-05-02T00:54:35;5.05;;;2.30;;
75758;SDS011;64371;47.566;19.086;2023-05-02T00:57:40;4.23;;;2.00;;
75758;SDS011;64371;47.566;19.086;2023-05-02T01:11:02;3.75;;;2.05;;
75758;SDS011;64371;47.566;19.086;2023-05-02T01:14:13;5.13;;;2.47;;
75758;SDS011;64371;47.566;19.086;2023-05-02T01:17:16;4.55;;;2.20;;
75758;SDS011;64371;47.566;19.086;2023-05-02T01:20:22;7.80;;;2.83;;
75758;SDS011;64371;47.566;19.086;2023-05-02T01:26:49;4.47;;;2.40;;
75758;SDS011;64371;47.566;19.086;2023-05-02T01:29:59;5.30;;;2.20;;
75758;SDS011;64371;47.566;19.086;2023-05-02T01:33:04;3.47;;;2.20;;
75758;SDS011;64371;47.566;19.086;2023-05-02T01:36:09;5.10;;;2.28;;
75758;SDS011;64371;47.566;19.086;2023-05-02T01:39:18;5.10;;;2.25;;
75758;SDS011;64371;47.566;19.086;2023-05-02T01:42:23;4.50;;;2.00;;
75758;SDS011;64371;47.566;19.086;2023-05-02T01:45:26;4.87;;;2.07;;
75758;SDS011;64371;47.566;19.086;2023-05-02T01:48:29;5.10;;;2.70;;
75758;SDS011;64371;47.566;19.086;2023-05-02T01:51:34;4.65;;;2.40;;
75758;SDS011;64371;47.566;19.086;2023-05-02T01:54:38;4.72;;;2.50;;
75758;SDS011;64371;47.566;19.086;2023-05-02T01:57:42;4.00;;;2.20;;
75758;SDS011;64371;47.566;19.086;2023-05-02T02:00:47;4.00;;;2.17;;
75758;SDS011;64371;47.566;19.086;2023-05-02T02:03:50;4.68;;;2.60;;
75758;SDS011;64371;47.566;19.086;2023-05-02T02:07:08;4.05;;;2.22;;
75758;SDS011;64371;47.566;19.086;2023-05-02T02:10:13;4.93;;;2.25;;
75758;SDS011;64371;47.566;19.086;2023-05-02T02:13:17;5.40;;;2.17;;
75758;SDS011;64371;47.566;19.086;2023-05-02T02:16:23;4.90;;;2.20;;
75758;SDS011;64371;47.566;19.086;2023-05-02T02:19:30;4.40;;;2.08;;
75758;SDS011;64371;47.566;19.086;2023-05-02T02:22:36;5.82;;;2.30;;
75758;SDS011;64371;47.566;19.086;2023-05-02T02:25:40;6.22;;;2.03;;
75758;SDS011;64371;47.566;19.086;2023-05-02T02:28:44;3.95;;;1.60;;
75758;SDS011;64371;47.566;19.086;2023-05-02T02:31:48;5.73;;;1.80;;
75758;SDS011;64371;47.566;19.086;2023-05-02T02:34:50;2.90;;;1.80;;
75758;SDS011;64371;47.566;19.086;2023-05-02T02:37:57;3.08;;;1.95;;
75758;SDS011;64371;47.566;19.086;2023-05-02T02:41:21;3.03;;;2.00;;
75758;SDS011;64371;47.566;19.086;2023-05-02T02:48:18;3.47;;;1.97;;
75758;SDS011;64371;47.566;19.086;2023-05-02T02:51:31;3.28;;;1.60;;
75758;SDS011;64371;47.566;19.086;2023-05-02T02:54:44;3.28;;;1.67;;
75758;SDS011;64371;47.566;19.086;2023-05-02T02:57:58;3.85;;;2.00;;
75758;SDS011;64371;47.566;19.086;2023-05-02T03:01:05;4.15;;;1.98;;
75758;SDS011;64371;47.566;19.086;2023-05-02T03:04:13;4.70;;;1.90;;
75758;SDS011;64371;47.566;19.086;2023-05-02T03:07:17;3.25;;;1.98;;
75758;SDS011;64371;47.566;19.086;2023-05-02T03:10:21;4.25;;;2.05;;
75758;SDS011;64371;47.566;19.086;2023-05-02T03:13:23;2.85;;;1.63;;
75758;SDS011;64371;47.566;19.086;2023-05-02T03:16:39;3.25;;;1.90;;
75758;SDS011;64371;47.566;19.086;2023-05-02T03:19:47;4.10;;;2.00;;
75758;SDS011;64371;47.566;19.086;2023-05-02T03:22:49;5.90;;;2.42;;
75758;SDS011;64371;47.566;19.086;2023-05-02T03:25:51;4.28;;;2.20;;
75758;SDS011;64371;47.566;19.086;2023-05-02T03:28:57;4.68;;;2.28;;
75758;SDS011;64371;47.566;19.086;2023-05-02T03:32:05;6.03;;;2.55;;
75758;SDS011;64371;47.566;19.086;2023-05-02T03:35:09;5.07;;;2.80;;
75758;SDS011;64371;47.566;19.086;2023-05-02T03:38:16;7.18;;;4.40;;
75758;SDS011;64371;47.566;19.086;2023-05-02T03:41:22;5.30;;;3.75;;
75758;SDS011;64371;47.566;19.086;2023-05-02T03:44:32;5.60;;;2.80;;
75758;SDS011;64371;47.566;19.086;2023-05-02T03:47:35;5.28;;;4.20;;
75758;SDS011;64371;47.566;19.086;2023-05-02T03:50:37;4.30;;;2.60;;
75758;SDS011;64371;47.566;19.086;2023-05-02T03:53:39;6.75;;;2.75;;
75758;SDS011;64371;47.566;19.086;2023-05-02T03:56:42;7.15;;;2.80;;
75758;SDS011;64371;47.566;19.086;2023-05-02T03:59:54;4.43;;;2.50;;
75758;SDS011;64371;47.566;19.086;2023-05-02T04:03:01;5.35;;;2.53;;
75758;SDS011;64371;47.566;19.086;2023-05-02T04:06:06;7.00;;;2.50;;
75758;SDS011;64371;47.566;19.086;2023-05-02T04:09:09;7.25;;;3.00;;
75758;SDS011;64371;47.566;19.086;2023-05-02T04:12:34;4.50;;;2.67;;
75758;SDS011;64371;47.566;19.086;2023-05-02T04:15:37;6.65;;;2.42;;
75758;SDS011;64371;47.566;19.086;2023-05-02T04:18:40;6.03;;;2.60;;
75758;SDS011;64371;47.566;19.086;2023-05-02T04:21:44;4.60;;;2.63;;
75758;SDS011;64371;47.566;19.086;2023-05-02T04:24:48;3.22;;;2.15;;
75758;SDS011;64371;47.566;19.086;2023-05-02T04:27:51;6.28;;;2.35;;
75758;SDS011;64371;47.566;19.086;2023-05-02T04:30:56;3.83;;;2.35;;
75758;SDS011;64371;47.566;19.086;2023-05-02T04:34:00;5.10;;;2.35;;
75758;SDS011;64371;47.566;19.086;2023-05-02T04:37:08;6.23;;;2.93;;
75758;SDS011;64371;47.566;19.086;2023-05-02T04:40:11;5.43;;;2.45;;
75758;SDS011;64371;47.566;19.086;2023-05-02T04:43:13;5.40;;;3.03;;
75758;SDS011;64371;47.566;19.086;2023-05-02T04:46:22;4.50;;;2.63;;
75758;SDS011;64371;47.566;19.086;2023-05-02T04:49:25;4.50;;;2.55;;
75758;SDS011;64371;47.566;19.086;2023-05-02T04:52:27;5.47;;;2.47;;
75758;SDS011;64371;47.566;19.086;2023-05-02T04:55:31;4.68;;;2.40;;
75758;SDS011;64371;47.566;19.086;2023-05-02T04:58:33;10.73;;;3.03;;
75758;SDS011;64371;47.566;19.086;2023-05-02T05:01:39;4.90;;;2.90;;
75758;SDS011;64371;47.566;19.086;2023-05-02T05:04:43;5.20;;;2.55;;
75758;SDS011;64371;47.566;19.086;2023-05-02T05:07:47;4.73;;;2.50;;
75758;SDS011;64371;47.566;19.086;2023-05-02T05:10:51;4.97;;;2.50;;
75758;SDS011;64371;47.566;19.086;2023-05-02T05:13:56;4.00;;;2.60;;
75758;SDS011;64371;47.566;19.086;2023-05-02T05:17:00;7.95;;;2.55;;
75758;SDS011;64371;47.566;19.086;2023-05-02T05:20:03;10.68;;;2.70;;
75758;SDS011;64371;47.566;19.086;2023-05-02T05:23:08;6.20;;;3.03;;
75758;SDS011;64371;47.566;19.086;2023-05-02T05:26:14;6.90;;;2.55;;
75758;SDS011;64371;47.566;19.086;2023-05-02T05:29:20;6.82;;;2.67;;
75758;SDS011;64371;47.566;19.086;2023-05-02T05:32:23;5.32;;;3.28;;
75758;SDS011;64371;47.566;19.086;2023-05-02T05:35:27;6.75;;;3.10;;
75758;SDS011;64371;47.566;19.086;2023-05-02T05:38:32;8.70;;;3.50;;
75758;SDS011;64371;47.566;19.086;2023-05-02T05:41:36;5.50;;;3.22;;
75758;SDS011;64371;47.566;19.086;2023-05-02T05:44:42;5.47;;;3.03;;
75758;SDS011;64371;47.566;19.086;2023-05-02T05:47:44;4.72;;;3.00;;
75758;SDS011;64371;47.566;19.086;2023-05-02T05:50:47;6.03;;;3.20;;
75758;SDS011;64371;47.566;19.086;2023-05-02T05:53:51;6.83;;;2.97;;
75758;SDS011;64371;47.566;19.086;2023-05-02T05:56:53;7.35;;;3.10;;
75758;SDS011;64371;47.566;19.086;2023-05-02T05:59:56;7.65;;;3.50;;
75758;SDS011;64371;47.566;19.086;2023-05-02T06:03:01;4.38;;;2.97;;
75758;SDS011;64371;47.566;19.086;2023-05-02T06:06:07;5.85;;;3.20;;
75758;SDS011;64371;47.566;19.086;2023-05-02T06:09:09;5.10;;;3.70;;
75758;SDS011;64371;47.566;19.086;2023-05-02T06:12:12;5.53;;;3.58;;
75758;SDS011;64371;47.566;19.086;2023-05-02T06:15:17;7.07;;;3.65;;
75758;SDS011;64371;47.566;19.086;2023-05-02T06:18:20;6.25;;;3.30;;
75758;SDS011;64371;47.566;19.086;2023-05-02T06:21:22;6.72;;;3.20;;
75758;SDS011;64371;47.566;19.086;2023-05-02T06:24:24;5.97;;;3.80;;
75758;SDS011;64371;47.566;19.086;2023-05-02T06:27:27;8.07;;;3.33;;
75758;SDS011;64371;47.566;19.086;2023-05-02T06:30:31;8.13;;;4.50;;
75758;SDS011;64371;47.566;19.086;2023-05-02T06:33:33;8.52;;;3.20;;
75758;SDS011;64371;47.566;19.086;2023-05-02T06:36:37;4.97;;;3.28;;
75758;SDS011;64371;47.566;19.086;2023-05-02T06:39:39;4.83;;;3.60;;
75758;SDS011;64371;47.566;19.086;2023-05-02T06:42:42;7.22;;;3.38;;
75758;SDS011;64371;47.566;19.086;2023-05-02T06:45:44;6.32;;;3.97;;
75758;SDS011;64371;47.566;19.086;2023-05-02T06:48:47;5.45;;;3.40;;
75758;SDS011;64371;47.566;19.086;2023-05-02T06:51:50;8.18;;;2.60;;
75758;SDS011;64371;47.566;19.086;2023-05-02T06:54:52;4.53;;;3.80;;
75758;SDS011;64371;47.566;19.086;2023-05-02T06:57:54;5.00;;;2.88;;
75758;SDS011;64371;47.566;19.086;2023-05-02T07:00:57;7.22;;;4.10;;
75758;SDS011;64371;47.566;19.086;2023-05-02T07:04:02;6.07;;;4.07;;
75758;SDS011;64371;47.566;19.086;2023-05-02T07:07:06;7.10;;;3.20;;
75758;SDS011;64371;47.566;19.086;2023-05-02T07:10:09;5.60;;;4.10;;
75758;SDS011;64371;47.566;19.086;2023-05-02T07:13:12;11.27;;;4.03;;
75758;SDS011;64371;47.566;19.086;2023-05-02T07:16:16;6.82;;;4.13;;
75758;SDS011;64371;47.566;19.086;2023-05-02T07:19:19;7.53;;;3.90;;
75758;SDS011;64371;47.566;19.086;2023-05-02T07:22:21;9.25;;;3.72;;
75758;SDS011;64371;47.566;19.086;2023-05-02T07:25:23;7.17;;;3.70;;
75758;SDS011;64371;47.566;19.086;2023-05-02T07:28:26;5.85;;;2.92;;
75758;SDS011;64371;47.566;19.086;2023-05-02T07:31:28;6.03;;;3.35;;
75758;SDS011;64371;47.566;19.086;2023-05-02T07:34:31;5.72;;;3.33;;
75758;SDS011;64371;47.566;19.086;2023-05-02T07:37:34;8.82;;;3.30;;
75758;SDS011;64371;47.566;19.086;2023-05-02T07:40:37;6.53;;;3.50;;
75758;SDS011;64371;47.566;19.086;2023-05-02T07:43:39;7.55;;;3.85;;
75758;SDS011;64371;47.566;19.086;2023-05-02T07:46:42;9.50;;;2.90;;
75758;SDS011;64371;47.566;19.086;2023-05-02T07:49:44;6.85;;;3.00;;
75758;SDS011;64371;47.566;19.086;2023-05-02T07:52:47;4.50;;;3.47;;
75758;SDS011;64371;47.566;19.086;2023-05-02T07:55:49;6.20;;;4.13;;
75758;SDS011;64371;47.566;19.086;2023-05-02T07:58:52;4.68;;;3.00;;
75758;SDS011;64371;47.566;19.086;2023-05-02T08:01:54;7.72;;;2.67;;
75758;SDS011;64371;47.566;19.086;2023-05-02T08:04:56;6.35;;;3.60;;
75758;SDS011;64371;47.566;19.086;2023-05-02T08:07:59;4.57;;;3.58;;
75758;SDS011;64371;47.566;19.086;2023-05-02T08:11:02;4.43;;;3.17;;
75758;SDS011;64371;47.566;19.086;2023-05-02T08:14:05;6.53;;;3.63;;
75758;SDS011;64371;47.566;19.086;2023-05-02T08:17:07;5.35;;;3.75;;
75758;SDS011;64371;47.566;19.086;2023-05-02T08:20:11;6.88;;;4.00;;
75758;SDS011;64371;47.566;19.086;2023-05-02T08:23:13;5.22;;;3.90;;
75758;SDS011;64371;47.566;19.086;2023-05-02T08:26:15;6.97;;;3.40;;
75758;SDS011;64371;47.566;19.086;2023-05-02T08:29:19;6.25;;;3.10;;
75758;SDS011;64371;47.566;19.086;2023-05-02T08:32:22;5.25;;;3.30;;
75758;SDS011;64371;47.566;19.086;2023-05-02T08:35:30;6.28;;;3.70;;
75758;SDS011;64371;47.566;19.086;2023-05-02T08:38:35;4.68;;;2.78;;
75758;SDS011;64371;47.566;19.086;2023-05-02T08:41:37;5.33;;;2.87;;
75758;SDS011;64371;47.566;19.086;2023-05-02T08:44:40;6.57;;;3.50;;
75758;SDS011;64371;47.566;19.086;2023-05-02T08:47:42;4.50;;;3.28;;
75758;SDS011;64371;47.566;19.086;2023-05-02T08:50:48;5.85;;;2.60;;
75758;SDS011;64371;47.566;19.086;2023-05-02T08:53:52;6.18;;;3.70;;
75758;SDS011;64371;47.566;19.086;2023-05-02T08:56:55;4.77;;;3.20;;
75758;SDS011;64371;47.566;19.086;2023-05-02T09:00:00;4.90;;;3.35;;
75758;SDS011;64371;47.566;19.086;2023-05-02T09:06:18;5.85;;;2.92;;
75758;SDS011;64371;47.566;19.086;2023-05-02T09:09:21;8.48;;;3.20;;
75758;SDS011;64371;47.566;19.086;2023-05-02T09:12:24;4.33;;;2.97;;
75758;SDS011;64371;47.566;19.086;2023-05-02T09:15:28;3.08;;;2.00;;
75758;SDS011;64371;47.566;19.086;2023-05-02T09:18:31;4.88;;;2.65;;
75758;SDS011;64371;47.566;19.086;2023-05-02T09:21:35;5.72;;;3.45;;
75758;SDS011;64371;47.566;19.086;2023-05-02T09:24:42;3.92;;;2.95;;
75758;SDS011;64371;47.566;19.086;2023-05-02T09:27:52;3.50;;;1.97;;
75758;SDS011;64371;47.566;19.086;2023-05-02T09:31:05;3.08;;;1.50;;
75758;SDS011;64371;47.566;19.086;2023-05-02T09:34:12;5.60;;;3.28;;
75758;SDS011;64371;47.566;19.086;2023-05-02T09:37:40;3.97;;;2.70;;
75758;SDS011;64371;47.566;19.086;2023-05-02T09:40:39;7.57;;;3.25;;
75758;SDS011;64371;47.566;19.086;2023-05-02T09:43:55;2.63;;;2.23;;
75758;SDS011;64371;47.566;19.086;2023-05-02T09:46:58;4.78;;;3.10;;
75758;SDS011;64371;47.566;19.086;2023-05-02T09:50:03;3.67;;;2.38;;
75758;SDS011;64371;47.566;19.086;2023-05-02T09:53:07;6.82;;;2.33;;
75758;SDS011;64371;47.566;19.086;2023-05-02T09:56:10;5.38;;;3.50;;
75758;SDS011;64371;47.566;19.086;2023-05-02T09:59:13;3.80;;;2.40;;
75758;SDS011;64371;47.566;19.086;2023-05-02T10:02:17;3.85;;;3.13;;
75758;SDS011;64371;47.566;19.086;2023-05-02T10:05:22;6.63;;;3.33;;
75758;SDS011;64371;47.566;19.086;2023-05-02T10:08:26;7.65;;;2.85;;
75758;SDS011;64371;47.566;19.086;2023-05-02T10:11:29;5.53;;;2.58;;
75758;SDS011;64371;47.566;19.086;2023-05-02T10:14:34;2.90;;;2.43;;
75758;SDS011;64371;47.566;19.086;2023-05-02T10:17:43;5.72;;;3.50;;
75758;SDS011;64371;47.566;19.086;2023-05-02T10:20:55;4.32;;;3.15;;
75758;SDS011;64371;47.566;19.086;2023-05-02T10:24:00;6.22;;;3.15;;
75758;SDS011;64371;47.566;19.086;2023-05-02T10:27:05;5.57;;;2.70;;
75758;SDS011;64371;47.566;19.086;2023-05-02T10:30:09;3.57;;;2.83;;
75758;SDS011;64371;47.566;19.086;2023-05-02T10:33:13;3.58;;;3.20;;
75758;SDS011;64371;47.566;19.086;2023-05-02T10:36:21;5.35;;;4.18;;
75758;SDS011;64371;47.566;19.086;2023-05-02T10:39:24;3.47;;;3.00;;
75758;SDS011;64371;47.566;19.086;2023-05-02T10:42:28;4.15;;;2.45;;
75758;SDS011;64371;47.566;19.086;2023-05-02T10:48:39;4.82;;;2.50;;
75758;SDS011;64371;47.566;19.086;2023-05-02T10:51:43;4.63;;;2.63;;
75758;SDS011;64371;47.566;19.086;2023-05-02T10:54:45;6.35;;;3.50;;
75758;SDS011;64371;47.566;19.086;2023-05-02T11:11:39;3.58;;;2.20;;
75758;SDS011;64371;47.566;19.086;2023-05-02T11:14:45;5.53;;;3.42;;
75758;SDS011;64371;47.566;19.086;2023-05-02T11:18:02;5.10;;;3.30;;
75758;SDS011;64371;47.566;19.086;2023-05-02T11:21:25;5.53;;;2.35;;
75758;SDS011;64371;47.566;19.086;2023-05-02T11:24:40;4.07;;;3.30;;
75758;SDS011;64371;47.566;19.086;2023-05-02T11:27:43;2.80;;;2.20;;
75758;SDS011;64371;47.566;19.086;2023-05-02T11:30:48;5.55;;;2.42;;
75758;SDS011;64371;47.566;19.086;2023-05-02T11:33:58;2.80;;;2.20;;
75758;SDS011;64371;47.566;19.086;2023-05-02T11:37:09;5.20;;;2.95;;
75758;SDS011;64371;47.566;19.086;2023-05-02T11:40:13;5.90;;;3.20;;
75758;SDS011;64371;47.566;19.086;2023-05-02T11:43:17;6.28;;;3.65;;
75758;SDS011;64371;47.566;19.086;2023-05-02T11:46:22;3.35;;;2.10;;
75758;SDS011;64371;47.566;19.086;2023-05-02T11:49:24;4.73;;;3.00;;
75758;SDS011;64371;47.566;19.086;2023-05-02T11:52:27;5.53;;;3.00;;
75758;SDS011;64371;47.566;19.086;2023-05-02T11:55:31;4.20;;;2.60;;
75758;SDS011;64371;47.566;19.086;2023-05-02T11:58:34;3.47;;;2.17;;
75758;SDS011;64371;47.566;19.086;2023-05-02T12:01:36;4.90;;;2.80;;
75758;SDS011;64371;47.566;19.086;2023-05-02T12:04:47;4.13;;;2.73;;
75758;SDS011;64371;47.566;19.086;2023-05-02T12:07:50;7.25;;;3.20;;
75758;SDS011;64371;47.566;19.086;2023-05-02T12:10:53;5.68;;;2.80;;
75758;SDS011;64371;47.566;19.086;2023-05-02T12:13:56;4.45;;;3.28;;
75758;SDS011;64371;47.566;19.086;2023-05-02T12:16:59;6.00;;;3.10;;
75758;SDS011;64371;47.566;19.086;2023-05-02T12:20:03;6.57;;;3.60;;
75758;SDS011;64371;47.566;19.086;2023-05-02T12:23:07;3.95;;;2.90;;
75758;SDS011;64371;47.566;19.086;2023-05-02T12:26:17;8.80;;;3.92;;
75758;SDS011;64371;47.566;19.086;2023-05-02T12:29:35;7.50;;;3.30;;
75758;SDS011;64371;47.566;19.086;2023-05-02T12:32:39;5.97;;;2.72;;
75758;SDS011;64371;47.566;19.086;2023-05-02T12:35:46;6.80;;;2.23;;
75758;SDS011;64371;47.566;19.086;2023-05-02T12:38:55;9.38;;;3.05;;
75758;SDS011;64371;47.566;19.086;2023-05-02T12:42:35;4.00;;;2.45;;
75758;SDS011;64371;47.566;19.086;2023-05-02T12:45:29;7.03;;;3.53;;
75758;SDS011;64371;47.566;19.086;2023-05-02T12:48:35;8.50;;;2.35;;
75758;SDS011;64371;47.566;19.086;2023-05-02T12:51:38;3.07;;;1.87;;
75758;SDS011;64371;47.566;19.086;2023-05-02T12:54:42;5.10;;;2.10;;
75758;SDS011;64371;47.566;19.086;2023-05-02T12:57:46;4.25;;;2.28;;
75758;SDS011;64371;47.566;19.086;2023-05-02T13:00:49;13.55;;;2.25;;
75758;SDS011;64371;47.566;19.086;2023-05-02T13:03:51;3.40;;;2.30;;
75758;SDS011;64371;47.566;19.086;2023-05-02T13:06:53;3.03;;;2.30;;
75758;SDS011;64371;47.566;19.086;2023-05-02T13:09:56;5.07;;;1.80;;
75758;SDS011;64371;47.566;19.086;2023-05-02T13:12:59;4.60;;;2.25;;
75758;SDS011;64371;47.566;19.086;2023-05-02T13:16:01;6.05;;;2.60;;
75758;SDS011;64371;47.566;19.086;2023-05-02T13:19:04;3.70;;;2.63;;
75758;SDS011;64371;47.566;19.086;2023-05-02T13:22:07;8.17;;;2.67;;
75758;SDS011;64371;47.566;19.086;2023-05-02T13:25:09;8.25;;;1.95;;
75758;SDS011;64371;47.566;19.086;2023-05-02T13:28:13;8.18;;;2.72;;
75758;SDS011;64371;47.566;19.086;2023-05-02T13:31:15;4.38;;;2.28;;
75758;SDS011;64371;47.566;19.086;2023-05-02T13:34:17;3.88;;;2.35;;
75758;SDS011;64371;47.566;19.086;2023-05-02T13:37:20;14.73;;;3.00;;
75758;SDS011;64371;47.566;19.086;2023-05-02T13:40:22;5.22;;;2.30;;
75758;SDS011;64371;47.566;19.086;2023-05-02T13:43:24;8.43;;;2.70;;
75758;SDS011;64371;47.566;19.086;2023-05-02T13:46:27;8.48;;;2.40;;
75758;SDS011;64371;47.566;19.086;2023-05-02T13:49:29;4.78;;;2.67;;
75758;SDS011;64371;47.566;19.086;2023-05-02T13:52:32;8.93;;;2.40;;
75758;SDS011;64371;47.566;19.086;2023-05-02T13:55:34;10.52;;;2.08;;
75758;SDS011;64371;47.566;19.086;2023-05-02T13:58:37;8.20;;;2.38;;
75758;SDS011;64371;47.566;19.086;2023-05-02T14:01:40;4.63;;;1.75;;
75758;SDS011;64371;47.566;19.086;2023-05-02T14:04:42;4.20;;;2.30;;
75758;SDS011;64371;47.566;19.086;2023-05-02T14:07:44;5.23;;;2.17;;
75758;SDS011;64371;47.566;19.086;2023-05-02T14:10:47;7.03;;;2.85;;
75758;SDS011;64371;47.566;19.086;2023-05-02T14:13:50;6.35;;;3.00;;
75758;SDS011;64371;47.566;19.086;2023-05-02T14:16:52;7.10;;;2.45;;
75758;SDS011;64371;47.566;19.086;2023-05-02T14:19:54;7.95;;;4.05;;
75758;SDS011;64371;47.566;19.086;2023-05-02T14:22:57;6.30;;;3.50;;
75758;SDS011;64371;47.566;19.086;2023-05-02T14:25:59;5.68;;;2.90;;
75758;SDS011;64371;47.566;19.086;2023-05-02T14:29:02;5.80;;;2.97;;
75758;SDS011;64371;47.566;19.086;2023-05-02T14:32:05;5.03;;;2.80;;
75758;SDS011;64371;47.566;19.086;2023-05-02T14:35:08;5.07;;;3.13;;
75758;SDS011;64371;47.566;19.086;2023-05-02T14:38:11;4.60;;;2.90;;
75758;SDS011;64371;47.566;19.086;2023-05-02T14:41:13;5.85;;;2.85;;
75758;SDS011;64371;47.566;19.086;2023-05-02T14:44:16;5.00;;;2.53;;
75758;SDS011;64371;47.566;19.086;2023-05-02T14:47:19;4.28;;;2.50;;
75758;SDS011;64371;47.566;19.086;2023-05-02T14:50:21;7.07;;;2.45;;
75758;SDS011;64371;47.566;19.086;2023-05-02T14:53:24;3.87;;;2.57;;
75758;SDS011;64371;47.566;19.086;2023-05-02T14:56:27;6.53;;;3.28;;
75758;SDS011;64371;47.566;19.086;2023-05-02T14:59:29;5.18;;;2.95;;
75758;SDS011;64371;47.566;19.086;2023-05-02T15:02:32;13.13;;;2.60;;
75758;SDS011;64371;47.566;19.086;2023-05-02T15:05:35;3.28;;;2.28;;
75758;SDS011;64371;47.566;19.086;2023-05-02T15:08:38;3.27;;;2.00;;
75758;SDS011;64371;47.566;19.086;2023-05-02T15:11:40;7.53;;;3.08;;
75758;SDS011;64371;47.566;19.086;2023-05-02T15:14:43;8.82;;;2.60;;
75758;SDS011;64371;47.566;19.086;2023-05-02T15:17:45;5.57;;;3.15;;
75758;SDS011;64371;47.566;19.086;2023-05-02T15:20:48;2.92;;;2.00;;
75758;SDS011;64371;47.566;19.086;2023-05-02T15:23:50;4.07;;;2.50;;
75758;SDS011;64371;47.566;19.086;2023-05-02T15:26:53;7.05;;;2.15;;
75758;SDS011;64371;47.566;19.086;2023-05-02T15:29:56;9.50;;;2.65;;
75758;SDS011;64371;47.566;19.086;2023-05-02T15:32:58;4.80;;;2.47;;
75758;SDS011;64371;47.566;19.086;2023-05-02T15:36:00;3.85;;;2.90;;
75758;SDS011;64371;47.566;19.086;2023-05-02T15:39:03;5.10;;;2.60;;
75758;SDS011;64371;47.566;19.086;2023-05-02T15:42:07;7.47;;;2.80;;
75758;SDS011;64371;47.566;19.086;2023-05-02T15:45:10;5.47;;;2.53;;
75758;SDS011;64371;47.566;19.086;2023-05-02T15:48:14;3.03;;;2.38;;
75758;SDS011;64371;47.566;19.086;2023-05-02T15:51:17;8.20;;;3.15;;
75758;SDS011;64371;47.566;19.086;2023-05-02T15:54:19;7.33;;;3.27;;
75758;SDS011;64371;47.566;19.086;2023-05-02T15:57:22;5.63;;;2.75;;
75758;SDS011;64371;47.566;19.086;2023-05-02T16:00:24;8.43;;;3.08;;
75758;SDS011;64371;47.566;19.086;2023-05-02T16:03:27;4.43;;;2.40;;
75758;SDS011;64371;47.566;19.086;2023-05-02T16:06:31;6.93;;;3.22;;
75758;SDS011;64371;47.566;19.086;2023-05-02T16:09:35;3.60;;;2.90;;
75758;SDS011;64371;47.566;19.086;2023-05-02T16:12:37;5.05;;;3.00;;
75758;SDS011;64371;47.566;19.086;2023-05-02T16:15:39;10.00;;;3.30;;
75758;SDS011;64371;47.566;19.086;2023-05-02T16:18:42;6.80;;;3.58;;
75758;SDS011;64371;47.566;19.086;2023-05-02T16:21:44;4.90;;;2.05;;
75758;SDS011;64371;47.566;19.086;2023-05-02T16:24:47;5.30;;;2.77;;
75758;SDS011;64371;47.566;19.086;2023-05-02T16:27:49;6.53;;;3.03;;
75758;SDS011;64371;47.566;19.086;2023-05-02T16:30:51;9.32;;;3.25;;
75758;SDS011;64371;47.566;19.086;2023-05-02T16:33:54;3.88;;;2.25;;
75758;SDS011;64371;47.566;19.086;2023-05-02T16:36:56;3.10;;;2.80;;
75758;SDS011;64371;47.566;19.086;2023-05-02T16:39:58;4.17;;;3.00;;
75758;SDS011;64371;47.566;19.086;2023-05-02T16:43:02;6.57;;;2.88;;
75758;SDS011;64371;47.566;19.086;2023-05-02T16:46:05;2.45;;;2.25;;
75758;SDS011;64371;47.566;19.086;2023-05-02T16:49:08;5.50;;;2.38;;
75758;SDS011;64371;47.566;19.086;2023-05-02T16:52:10;11.27;;;3.08;;
75758;SDS011;64371;47.566;19.086;2023-05-02T16:55:12;4.93;;;1.70;;
75758;SDS011;64371;47.566;19.086;2023-05-02T16:58:15;3.83;;;2.28;;
75758;SDS011;64371;47.566;19.086;2023-05-02T17:01:17;2.67;;;2.20;;
75758;SDS011;64371;47.566;19.086;2023-05-02T17:04:20;5.07;;;2.42;;
75758;SDS011;64371;47.566;19.086;2023-05-02T17:07:22;3.92;;;2.78;;
75758;SDS011;64371;47.566;19.086;2023-05-02T17:10:24;3.13;;;2.30;;
75758;SDS011;64371;47.566;19.086;2023-05-02T17:13:27;5.65;;;3.00;;
75758;SDS011;64371;47.566;19.086;2023-05-02T17:16:30;4.60;;;2.75;;
75758;SDS011;64371;47.566;19.086;2023-05-02T17:19:32;3.50;;;2.70;;
75758;SDS011;64371;47.566;19.086;2023-05-02T17:22:35;6.43;;;2.83;;
75758;SDS011;64371;47.566;19.086;2023-05-02T17:25:39;6.37;;;3.30;;
75758;SDS011;64371;47.566;19.086;2023-05-02T17:28:42;7.85;;;3.70;;
75758;SDS011;64371;47.566;19.086;2023-05-02T17:31:45;5.47;;;3.90;;
75758;SDS011;64371;47.566;19.086;2023-05-02T17:34:48;7.22;;;4.10;;
75758;SDS011;64371;47.566;19.086;2023-05-02T17:37:50;6.05;;;3.63;;
75758;SDS011;64371;47.566;19.086;2023-05-02T17:40:52;6.20;;;3.80;;
75758;SDS011;64371;47.566;19.086;2023-05-02T17:43:55;8.23;;;4.03;;
75758;SDS011;64371;47.566;19.086;2023-05-02T17:46:58;14.60;;;4.60;;
75758;SDS011;64371;47.566;19.086;2023-05-02T17:50:00;6.80;;;4.00;;
75758;SDS011;64371;47.566;19.086;2023-05-02T17:53:06;7.28;;;4.00;;
75758;SDS011;64371;47.566;19.086;2023-05-02T17:56:09;7.40;;;4.03;;
75758;SDS011;64371;47.566;19.086;2023-05-02T17:59:11;8.52;;;4.38;;
75758;SDS011;64371;47.566;19.086;2023-05-02T18:02:14;7.28;;;3.88;;
75758;SDS011;64371;47.566;19.086;2023-05-02T18:05:18;10.95;;;4.35;;
75758;SDS011;64371;47.566;19.086;2023-05-02T18:08:20;5.13;;;4.00;;
75758;SDS011;64371;47.566;19.086;2023-05-02T18:11:23;10.00;;;4.50;;
75758;SDS011;64371;47.566;19.086;2023-05-02T18:14:30;5.63;;;4.18;;
75758;SDS011;64371;47.566;19.086;2023-05-02T18:17:32;7.50;;;4.90;;
75758;SDS011;64371;47.566;19.086;2023-05-02T18:20:37;7.57;;;4.53;;
75758;SDS011;64371;47.566;19.086;2023-05-02T18:23:41;8.48;;;4.72;;
75758;SDS011;64371;47.566;19.086;2023-05-02T18:26:44;8.63;;;5.30;;
75758;SDS011;64371;47.566;19.086;2023-05-02T18:29:49;8.35;;;4.97;;
75758;SDS011;64371;47.566;19.086;2023-05-02T18:32:51;7.20;;;4.93;;
75758;SDS011;64371;47.566;19.086;2023-05-02T18:35:53;9.00;;;5.55;;
75758;SDS011;64371;47.566;19.086;2023-05-02T18:38:56;9.00;;;5.60;;
75758;SDS011;64371;47.566;19.086;2023-05-02T18:42:02;9.00;;;6.33;;
75758;SDS011;64371;47.566;19.086;2023-05-02T18:45:05;7.32;;;5.70;;
75758;SDS011;64371;47.566;19.086;2023-05-02T18:48:09;9.80;;;6.22;;
75758;SDS011;64371;47.566;19.086;2023-05-02T18:51:11;7.13;;;5.50;;